sensor_id;sensor_type;location;lat;lon;timestamp;temperature;humidity
2873;DHT22;1444;49.166;7.312;2023-02-24T00:00:58;11.20;99.90
2873;DHT22;1444;49.166;7.312;2023-02-24T00:03:33;11.20;99.90
2873;DHT22;1444;49.166;7.312;2023-02-24T00:06:00;11.10;99.90
2873;DHT22;1444;49.166;7.312;2023-02-24T00:08:31;11.10;99.90
2873;DHT22;1444;49.166;7.312;2023-02-24T00:10:57;11.00;99.90
2873;DHT22;1444;49.166;7.312;2023-02-24T00:13:24;11.00;99.90
2873;DHT22;1444;49.166;7.312;2023-02-24T00:15:58;11.00;99.90
2873;DHT22;1444;49.166;7.312;2023-02-24T00:18:26;11.00;99.90
2873;DHT22;1444;49.166;7.312;2023-02-24T00:20:52;11.10;99.90
2873;DHT22;1444;49.166;7.312;2023-02-24T00:23:22;11.10;99.90
2873;DHT22;1444;49.166;7.312;2023-02-24T00:25:57;11.00;99.90
2873;DHT22;1444;49.166;7.312;2023-02-24T00:28:24;11.00;99.90
2873;DHT22;1444;49.166;7.312;2023-02-24T00:30:52;10.90;99.90
2873;DHT22;1444;49.166;7.312;2023-02-24T00:33:20;10.90;99.90
2873;DHT22;1444;49.166;7.312;2023-02-24T00:35:47;10.90;99.90
2873;DHT22;1444;49.166;7.312;2023-02-24T00:38:13;10.90;99.90
2873;DHT22;1444;49.166;7.312;2023-02-24T00:40:40;10.80;99.90
2873;DHT22;1444;49.166;7.312;2023-02-24T00:43:11;10.70;99.90
2873;DHT22;1444;49.166;7.312;2023-02-24T00:45:38;10.70;99.90
2873;DHT22;1444;49.166;7.312;2023-02-24T00:48:05;10.70;99.90
2873;DHT22;1444;49.166;7.312;2023-02-24T00:50:35;10.60;99.90
2873;DHT22;1444;49.166;7.312;2023-02-24T00:53:04;10.50;99.90
2873;DHT22;1444;49.166;7.312;2023-02-24T00:55:31;10.50;99.90
2873;DHT22;1444;49.166;7.312;2023-02-24T00:58:01;10.50;99.90
2873;DHT22;1444;49.166;7.312;2023-02-24T01:00:29;10.50;99.90
2873;DHT22;1444;49.166;7.312;2023-02-24T01:03:01;10.50;99.90
2873;DHT22;1444;49.166;7.312;2023-02-24T01:05:28;10.50;99.90
2873;DHT22;1444;49.166;7.312;2023-02-24T01:07:56;10.50;99.90
2873;DHT22;1444;49.166;7.312;2023-02-24T01:10:23;10.40;99.90
2873;DHT22;1444;49.166;7.312;2023-02-24T01:12:52;10.40;99.90
2873;DHT22;1444;49.166;7.312;2023-02-24T01:15:20;10.40;99.90
2873;DHT22;1444;49.166;7.312;2023-02-24T01:17:48;10.40;99.90
2873;DHT22;1444;49.166;7.312;2023-02-24T01:20:16;10.40;99.90
2873;DHT22;1444;49.166;7.312;2023-02-24T01:22:45;10.50;99.90
2873;DHT22;1444;49.166;7.312;2023-02-24T01:25:12;10.50;99.90
2873;DHT22;1444;49.166;7.312;2023-02-24T01:27:39;10.40;99.90
2873;DHT22;1444;49.166;7.312;2023-02-24T01:30:07;10.40;99.90
2873;DHT22;1444;49.166;7.312;2023-02-24T01:32:38;10.30;99.90
2873;DHT22;1444;49.166;7.312;2023-02-24T01:35:06;10.20;99.90
2873;DHT22;1444;49.166;7.312;2023-02-24T01:37:33;10.00;99.90
2873;DHT22;1444;49.166;7.312;2023-02-24T01:40:00;9.80;99.90
2873;DHT22;1444;49.166;7.312;2023-02-24T01:42:34;9.80;99.90
2873;DHT22;1444;49.166;7.312;2023-02-24T01:47:41;9.80;99.90
2873;DHT22;1444;49.166;7.312;2023-02-24T01:50:11;9.80;99.90
2873;DHT22;1444;49.166;7.312;2023-02-24T01:52:42;9.70;99.90
2873;DHT22;1444;49.166;7.312;2023-02-24T01:55:13;9.80;99.90
2873;DHT22;1444;49.166;7.312;2023-02-24T01:57:41;9.70;99.90
2873;DHT22;1444;49.166;7.312;2023-02-24T02:00:13;9.70;99.90
2873;DHT22;1444;49.166;7.312;2023-02-24T02:02:58;9.80;99.90
2873;DHT22;1444;49.166;7.312;2023-02-24T02:05:27;9.80;99.90
2873;DHT22;1444;49.166;7.312;2023-02-24T02:07:54;9.90;99.90
2873;DHT22;1444;49.166;7.312;2023-02-24T02:10:21;9.90;99.90
2873;DHT22;1444;49.166;7.312;2023-02-24T02:12:49;9.90;99.90
2873;DHT22;1444;49.166;7.312;2023-02-24T02:15:17;9.80;99.90
2873;DHT22;1444;49.166;7.312;2023-02-24T02:17:53;9.70;99.90
2873;DHT22;1444;49.166;7.312;2023-02-24T02:20:48;9.60;99.90
2873;DHT22;1444;49.166;7.312;2023-02-24T02:23:37;9.60;99.90
2873;DHT22;1444;49.166;7.312;2023-02-24T02:26:18;9.70;99.90
2873;DHT22;1444;49.166;7.312;2023-02-24T02:29:09;9.70;99.90
2873;DHT22;1444;49.166;7.312;2023-02-24T02:31:53;9.70;99.90
2873;DHT22;1444;49.166;7.312;2023-02-24T02:34:36;9.70;99.90
2873;DHT22;1444;49.166;7.312;2023-02-24T02:37:09;9.70;99.90
2873;DHT22;1444;49.166;7.312;2023-02-24T02:39:47;9.70;99.90
2873;DHT22;1444;49.166;7.312;2023-02-24T02:42:23;9.80;99.90
2873;DHT22;1444;49.166;7.312;2023-02-24T02:44:58;9.80;99.90
2873;DHT22;1444;49.166;7.312;2023-02-24T02:47:33;9.80;99.90
2873;DHT22;1444;49.166;7.312;2023-02-24T02:50:09;9.90;99.90
2873;DHT22;1444;49.166;7.312;2023-02-24T02:52:42;10.00;99.90
2873;DHT22;1444;49.166;7.312;2023-02-24T02:55:14;10.00;99.90
2873;DHT22;1444;49.166;7.312;2023-02-24T02:57:48;9.90;99.90
2873;DHT22;1444;49.166;7.312;2023-02-24T03:00:20;9.90;99.90
2873;DHT22;1444;49.166;7.312;2023-02-24T03:02:50;9.90;99.90
2873;DHT22;1444;49.166;7.312;2023-02-24T03:05:28;10.20;99.90
2873;DHT22;1444;49.166;7.312;2023-02-24T03:07:58;10.00;99.90
2873;DHT22;1444;49.166;7.312;2023-02-24T03:10:28;9.90;99.90
2873;DHT22;1444;49.166;7.312;2023-02-24T03:13:01;9.90;99.90
2873;DHT22;1444;49.166;7.312;2023-02-24T03:15:31;9.90;99.90
2873;DHT22;1444;49.166;7.312;2023-02-24T03:18:02;9.90;99.90
2873;DHT22;1444;49.166;7.312;2023-02-24T03:20:40;9.90;99.90
2873;DHT22;1444;49.166;7.312;2023-02-24T03:23:12;9.90;99.90
2873;DHT22;1444;49.166;7.312;2023-02-24T03:25:43;9.90;99.90
2873;DHT22;1444;49.166;7.312;2023-02-24T03:28:17;10.00;99.90
2873;DHT22;1444;49.166;7.312;2023-02-24T03:30:48;10.00;99.90
2873;DHT22;1444;49.166;7.312;2023-02-24T03:33:22;10.00;99.90
2873;DHT22;1444;49.166;7.312;2023-02-24T03:35:52;10.10;99.90
2873;DHT22;1444;49.166;7.312;2023-02-24T03:38:18;10.10;99.90
2873;DHT22;1444;49.166;7.312;2023-02-24T03:40:48;10.10;99.90
2873;DHT22;1444;49.166;7.312;2023-02-24T03:43:19;10.10;99.90
2873;DHT22;1444;49.166;7.312;2023-02-24T03:45:47;10.00;99.90
2873;DHT22;1444;49.166;7.312;2023-02-24T03:48:14;9.90;99.90
2873;DHT22;1444;49.166;7.312;2023-02-24T03:50:42;9.80;99.90
2873;DHT22;1444;49.166;7.312;2023-02-24T03:53:27;9.90;99.90
2873;DHT22;1444;49.166;7.312;2023-02-24T03:56:02;9.90;99.90
2873;DHT22;1444;49.166;7.312;2023-02-24T03:58:41;10.00;99.90
2873;DHT22;1444;49.166;7.312;2023-02-24T04:01:15;10.10;99.90
2873;DHT22;1444;49.166;7.312;2023-02-24T04:04:00;10.10;99.90
2873;DHT22;1444;49.166;7.312;2023-02-24T04:06:34;10.00;99.90
2873;DHT22;1444;49.166;7.312;2023-02-24T04:09:15;10.00;99.90
2873;DHT22;1444;49.166;7.312;2023-02-24T04:11:47;10.00;99.90
2873;DHT22;1444;49.166;7.312;2023-02-24T04:14:22;10.10;99.90
2873;DHT22;1444;49.166;7.312;2023-02-24T04:16:54;10.10;99.90
2873;DHT22;1444;49.166;7.312;2023-02-24T04:19:27;10.10;99.90
2873;DHT22;1444;49.166;7.312;2023-02-24T04:21:55;10.10;99.90
2873;DHT22;1444;49.166;7.312;2023-02-24T04:24:28;10.10;99.90
2873;DHT22;1444;49.166;7.312;2023-02-24T04:26:57;10.20;99.90
2873;DHT22;1444;49.166;7.312;2023-02-24T04:29:27;10.20;99.90
2873;DHT22;1444;49.166;7.312;2023-02-24T04:32:02;10.00;99.90
2873;DHT22;1444;49.166;7.312;2023-02-24T04:34:31;10.00;99.90
2873;DHT22;1444;49.166;7.312;2023-02-24T04:36:58;10.00;99.90
2873;DHT22;1444;49.166;7.312;2023-02-24T04:39:29;10.00;99.90
2873;DHT22;1444;49.166;7.312;2023-02-24T04:41:57;10.10;99.90
2873;DHT22;1444;49.166;7.312;2023-02-24T04:44:26;9.90;99.90
2873;DHT22;1444;49.166;7.312;2023-02-24T04:46:53;9.90;99.90
2873;DHT22;1444;49.166;7.312;2023-02-24T04:49:21;9.90;99.90
2873;DHT22;1444;49.166;7.312;2023-02-24T04:52:18;9.90;99.90
2873;DHT22;1444;49.166;7.312;2023-02-24T04:54:46;9.90;99.90
2873;DHT22;1444;49.166;7.312;2023-02-24T04:57:13;10.00;99.90
2873;DHT22;1444;49.166;7.312;2023-02-24T04:59:40;10.00;99.90
2873;DHT22;1444;49.166;7.312;2023-02-24T05:02:06;10.10;99.90
2873;DHT22;1444;49.166;7.312;2023-02-24T05:04:34;10.00;99.90
2873;DHT22;1444;49.166;7.312;2023-02-24T05:07:03;10.00;99.90
2873;DHT22;1444;49.166;7.312;2023-02-24T05:09:30;10.00;99.90
2873;DHT22;1444;49.166;7.312;2023-02-24T05:11:58;10.10;99.90
2873;DHT22;1444;49.166;7.312;2023-02-24T05:14:25;10.00;99.90
2873;DHT22;1444;49.166;7.312;2023-02-24T05:16:52;10.00;99.90
2873;DHT22;1444;49.166;7.312;2023-02-24T05:19:24;10.00;99.90
2873;DHT22;1444;49.166;7.312;2023-02-24T05:22:09;10.00;99.90
2873;DHT22;1444;49.166;7.312;2023-02-24T05:24:36;10.00;99.90
2873;DHT22;1444;49.166;7.312;2023-02-24T05:27:04;10.00;99.90
2873;DHT22;1444;49.166;7.312;2023-02-24T05:29:33;10.00;99.90
2873;DHT22;1444;49.166;7.312;2023-02-24T05:32:02;10.10;99.90
2873;DHT22;1444;49.166;7.312;2023-02-24T05:34:30;10.00;99.90
2873;DHT22;1444;49.166;7.312;2023-02-24T05:36:58;9.80;99.90
2873;DHT22;1444;49.166;7.312;2023-02-24T05:39:26;9.70;99.90
2873;DHT22;1444;49.166;7.312;2023-02-24T05:41:54;9.50;99.90
2873;DHT22;1444;49.166;7.312;2023-02-24T05:44:24;9.90;99.90
2873;DHT22;1444;49.166;7.312;2023-02-24T05:46:53;9.30;99.90
2873;DHT22;1444;49.166;7.312;2023-02-24T05:49:24;9.40;99.90
2873;DHT22;1444;49.166;7.312;2023-02-24T05:51:54;9.50;99.90
2873;DHT22;1444;49.166;7.312;2023-02-24T05:54:23;9.60;99.90
2873;DHT22;1444;49.166;7.312;2023-02-24T05:56:53;9.70;99.90
2873;DHT22;1444;49.166;7.312;2023-02-24T05:59:22;9.80;99.90
2873;DHT22;1444;49.166;7.312;2023-02-24T06:01:49;9.90;99.90
2873;DHT22;1444;49.166;7.312;2023-02-24T06:04:18;9.90;99.90
2873;DHT22;1444;49.166;7.312;2023-02-24T06:07:04;9.90;99.90
2873;DHT22;1444;49.166;7.312;2023-02-24T06:09:31;9.90;99.90
2873;DHT22;1444;49.166;7.312;2023-02-24T06:11:58;9.70;99.90
2873;DHT22;1444;49.166;7.312;2023-02-24T06:14:28;9.60;99.90
2873;DHT22;1444;49.166;7.312;2023-02-24T06:16:54;9.50;99.90
2873;DHT22;1444;49.166;7.312;2023-02-24T06:19:21;9.60;99.90
2873;DHT22;1444;49.166;7.312;2023-02-24T06:21:49;9.60;99.90
2873;DHT22;1444;49.166;7.312;2023-02-24T06:24:17;9.60;99.90
2873;DHT22;1444;49.166;7.312;2023-02-24T06:26:44;9.60;99.90
2873;DHT22;1444;49.166;7.312;2023-02-24T06:29:12;9.60;99.90
2873;DHT22;1444;49.166;7.312;2023-02-24T06:31:41;9.70;99.90
2873;DHT22;1444;49.166;7.312;2023-02-24T06:34:09;9.80;99.90
2873;DHT22;1444;49.166;7.312;2023-02-24T06:36:36;8.60;99.90
2873;DHT22;1444;49.166;7.312;2023-02-24T06:39:03;10.00;99.90
2873;DHT22;1444;49.166;7.312;2023-02-24T06:41:33;10.00;99.90
2873;DHT22;1444;49.166;7.312;2023-02-24T06:44:00;10.10;99.90
2873;DHT22;1444;49.166;7.312;2023-02-24T06:46:27;10.00;99.90
2873;DHT22;1444;49.166;7.312;2023-02-24T06:48:55;9.90;99.90
2873;DHT22;1444;49.166;7.312;2023-02-24T06:51:23;9.90;99.90
2873;DHT22;1444;49.166;7.312;2023-02-24T06:53:54;10.00;99.90
2873;DHT22;1444;49.166;7.312;2023-02-24T06:56:21;10.00;99.90
2873;DHT22;1444;49.166;7.312;2023-02-24T06:58:51;10.10;99.90
2873;DHT22;1444;49.166;7.312;2023-02-24T07:01:21;10.20;99.90
2873;DHT22;1444;49.166;7.312;2023-02-24T07:03:50;10.10;99.90
2873;DHT22;1444;49.166;7.312;2023-02-24T07:06:47;10.10;99.90
2873;DHT22;1444;49.166;7.312;2023-02-24T07:09:18;10.00;99.90
2873;DHT22;1444;49.166;7.312;2023-02-24T07:11:46;10.00;99.90
2873;DHT22;1444;49.166;7.312;2023-02-24T07:14:17;10.00;99.90
2873;DHT22;1444;49.166;7.312;2023-02-24T07:16:44;10.10;99.90
2873;DHT22;1444;49.166;7.312;2023-02-24T07:19:13;10.10;99.90
2873;DHT22;1444;49.166;7.312;2023-02-24T07:21:41;10.10;99.90
2873;DHT22;1444;49.166;7.312;2023-02-24T07:24:14;10.00;99.90
2873;DHT22;1444;49.166;7.312;2023-02-24T07:26:54;10.00;99.90
2873;DHT22;1444;49.166;7.312;2023-02-24T07:29:21;10.10;99.90
2873;DHT22;1444;49.166;7.312;2023-02-24T07:31:48;10.20;99.90
2873;DHT22;1444;49.166;7.312;2023-02-24T07:36:49;10.40;99.90
2873;DHT22;1444;49.166;7.312;2023-02-24T07:39:17;10.40;99.90
2873;DHT22;1444;49.166;7.312;2023-02-24T07:41:45;10.40;99.90
2873;DHT22;1444;49.166;7.312;2023-02-24T07:44:15;10.50;99.90
2873;DHT22;1444;49.166;7.312;2023-02-24T07:46:42;10.50;99.90
2873;DHT22;1444;49.166;7.312;2023-02-24T07:49:11;10.60;99.90
2873;DHT22;1444;49.166;7.312;2023-02-24T07:51:39;10.60;99.90
2873;DHT22;1444;49.166;7.312;2023-02-24T07:54:06;10.60;99.90
2873;DHT22;1444;49.166;7.312;2023-02-24T07:56:38;10.60;99.90
2873;DHT22;1444;49.166;7.312;2023-02-24T07:59:11;10.70;99.90
2873;DHT22;1444;49.166;7.312;2023-02-24T08:01:41;10.60;99.90
2873;DHT22;1444;49.166;7.312;2023-02-24T08:04:15;10.60;99.90
2873;DHT22;1444;49.166;7.312;2023-02-24T08:06:43;10.50;99.90
2873;DHT22;1444;49.166;7.312;2023-02-24T08:09:12;10.30;99.90
2873;DHT22;1444;49.166;7.312;2023-02-24T08:11:45;10.30;99.90
2873;DHT22;1444;49.166;7.312;2023-02-24T08:14:12;10.40;99.90
2873;DHT22;1444;49.166;7.312;2023-02-24T08:16:40;10.30;99.90
2873;DHT22;1444;49.166;7.312;2023-02-24T08:19:08;10.40;99.90
2873;DHT22;1444;49.166;7.312;2023-02-24T08:21:38;10.30;99.90
2873;DHT22;1444;49.166;7.312;2023-02-24T08:24:06;10.30;99.90
2873;DHT22;1444;49.166;7.312;2023-02-24T08:26:33;10.20;99.90
2873;DHT22;1444;49.166;7.312;2023-02-24T08:29:10;10.20;99.90
2873;DHT22;1444;49.166;7.312;2023-02-24T08:31:37;10.30;99.90
2873;DHT22;1444;49.166;7.312;2023-02-24T08:34:04;10.20;99.90
2873;DHT22;1444;49.166;7.312;2023-02-24T08:36:30;10.40;99.90
2873;DHT22;1444;49.166;7.312;2023-02-24T08:38:57;10.50;99.90
2873;DHT22;1444;49.166;7.312;2023-02-24T08:41:24;10.50;99.90
2873;DHT22;1444;49.166;7.312;2023-02-24T08:44:11;10.50;99.90
2873;DHT22;1444;49.166;7.312;2023-02-24T08:46:41;10.50;99.90
2873;DHT22;1444;49.166;7.312;2023-02-24T08:49:09;10.50;99.90
2873;DHT22;1444;49.166;7.312;2023-02-24T08:51:38;10.50;99.90
2873;DHT22;1444;49.166;7.312;2023-02-24T08:54:09;10.50;99.90
2873;DHT22;1444;49.166;7.312;2023-02-24T08:56:40;10.40;99.90
2873;DHT22;1444;49.166;7.312;2023-02-24T08:59:11;10.40;99.90
2873;DHT22;1444;49.166;7.312;2023-02-24T09:01:54;10.30;99.90
2873;DHT22;1444;49.166;7.312;2023-02-24T09:04:41;10.10;99.90
2873;DHT22;1444;49.166;7.312;2023-02-24T09:07:12;10.00;99.90
2873;DHT22;1444;49.166;7.312;2023-02-24T09:09:40;9.90;99.90
2873;DHT22;1444;49.166;7.312;2023-02-24T09:12:08;9.90;99.90
2873;DHT22;1444;49.166;7.312;2023-02-24T09:14:47;9.90;99.90
2873;DHT22;1444;49.166;7.312;2023-02-24T09:17:15;9.90;99.90
2873;DHT22;1444;49.166;7.312;2023-02-24T09:19:46;9.90;99.90
2873;DHT22;1444;49.166;7.312;2023-02-24T09:22:32;9.90;99.90
2873;DHT22;1444;49.166;7.312;2023-02-24T09:25:07;10.00;99.90
2873;DHT22;1444;49.166;7.312;2023-02-24T09:27:46;10.10;99.90
2873;DHT22;1444;49.166;7.312;2023-02-24T09:30:19;10.20;99.90
2873;DHT22;1444;49.166;7.312;2023-02-24T09:33:13;10.30;99.90
2873;DHT22;1444;49.166;7.312;2023-02-24T09:35:44;10.30;99.90
2873;DHT22;1444;49.166;7.312;2023-02-24T09:38:12;10.50;99.90
2873;DHT22;1444;49.166;7.312;2023-02-24T09:40:42;10.60;99.90
2873;DHT22;1444;49.166;7.312;2023-02-24T09:43:16;10.60;99.90
2873;DHT22;1444;49.166;7.312;2023-02-24T09:45:53;10.70;99.90
2873;DHT22;1444;49.166;7.312;2023-02-24T09:48:30;10.60;99.90
2873;DHT22;1444;49.166;7.312;2023-02-24T09:51:11;10.80;99.90
2873;DHT22;1444;49.166;7.312;2023-02-24T09:53:46;10.90;99.90
2873;DHT22;1444;49.166;7.312;2023-02-24T09:56:21;10.80;99.90
2873;DHT22;1444;49.166;7.312;2023-02-24T09:58:59;10.80;99.90
2873;DHT22;1444;49.166;7.312;2023-02-24T10:01:47;10.80;99.90
2873;DHT22;1444;49.166;7.312;2023-02-24T10:04:33;10.90;99.90
2873;DHT22;1444;49.166;7.312;2023-02-24T10:07:11;10.90;99.90
2873;DHT22;1444;49.166;7.312;2023-02-24T10:09:41;11.10;99.90
2873;DHT22;1444;49.166;7.312;2023-02-24T10:12:17;11.30;99.90
2873;DHT22;1444;49.166;7.312;2023-02-24T10:14:47;11.40;99.90
2873;DHT22;1444;49.166;7.312;2023-02-24T10:17:20;11.50;99.90
2873;DHT22;1444;49.166;7.312;2023-02-24T10:19:54;11.60;99.90
2873;DHT22;1444;49.166;7.312;2023-02-24T10:22:33;11.70;99.90
2873;DHT22;1444;49.166;7.312;2023-02-24T10:25:18;11.80;99.90
2873;DHT22;1444;49.166;7.312;2023-02-24T10:27:55;11.80;99.90
2873;DHT22;1444;49.166;7.312;2023-02-24T10:30:34;11.80;99.90
2873;DHT22;1444;49.166;7.312;2023-02-24T10:33:18;12.00;99.90
2873;DHT22;1444;49.166;7.312;2023-02-24T10:35:50;12.00;99.90
2873;DHT22;1444;49.166;7.312;2023-02-24T10:38:19;12.10;99.90
2873;DHT22;1444;49.166;7.312;2023-02-24T10:40:51;12.20;99.90
2873;DHT22;1444;49.166;7.312;2023-02-24T10:43:23;12.40;99.90
2873;DHT22;1444;49.166;7.312;2023-02-24T10:45:56;12.50;99.90
2873;DHT22;1444;49.166;7.312;2023-02-24T10:48:33;12.70;99.90
2873;DHT22;1444;49.166;7.312;2023-02-24T10:51:10;13.10;99.90
2873;DHT22;1444;49.166;7.312;2023-02-24T10:53:45;13.30;99.90
2873;DHT22;1444;49.166;7.312;2023-02-24T10:56:19;13.60;99.20
2873;DHT22;1444;49.166;7.312;2023-02-24T10:59:03;13.60;99.20
2873;DHT22;1444;49.166;7.312;2023-02-24T11:01:52;13.70;98.70
2873;DHT22;1444;49.166;7.312;2023-02-24T11:04:32;13.60;98.60
2873;DHT22;1444;49.166;7.312;2023-02-24T11:07:18;13.70;99.00
2873;DHT22;1444;49.166;7.312;2023-02-24T11:10:01;13.60;97.50
2873;DHT22;1444;49.166;7.312;2023-02-24T11:12:37;13.50;96.20
2873;DHT22;1444;49.166;7.312;2023-02-24T11:15:29;13.40;96.70
2873;DHT22;1444;49.166;7.312;2023-02-24T11:18:22;13.40;97.50
2873;DHT22;1444;49.166;7.312;2023-02-24T11:20:53;13.30;97.20
2873;DHT22;1444;49.166;7.312;2023-02-24T11:23:23;13.30;97.50
2873;DHT22;1444;49.166;7.312;2023-02-24T11:25:57;13.40;97.20
2873;DHT22;1444;49.166;7.312;2023-02-24T11:28:52;13.50;97.40
2873;DHT22;1444;49.166;7.312;2023-02-24T11:31:32;13.60;97.60
2873;DHT22;1444;49.166;7.312;2023-02-24T11:34:06;13.80;97.70
2873;DHT22;1444;49.166;7.312;2023-02-24T11:36:41;13.90;97.50
2873;DHT22;1444;49.166;7.312;2023-02-24T11:39:27;13.90;96.50
2873;DHT22;1444;49.166;7.312;2023-02-24T11:42:03;13.90;96.00
2873;DHT22;1444;49.166;7.312;2023-02-24T11:44:36;13.80;95.60
2873;DHT22;1444;49.166;7.312;2023-02-24T11:47:06;13.70;95.40
2873;DHT22;1444;49.166;7.312;2023-02-24T11:49:40;13.60;95.60
2873;DHT22;1444;49.166;7.312;2023-02-24T11:52:13;13.40;95.20
2873;DHT22;1444;49.166;7.312;2023-02-24T11:54:44;13.40;95.70
2873;DHT22;1444;49.166;7.312;2023-02-24T11:57:17;13.30;96.20
2873;DHT22;1444;49.166;7.312;2023-02-24T11:59:47;13.30;95.90
2873;DHT22;1444;49.166;7.312;2023-02-24T12:02:21;13.40;95.70
2873;DHT22;1444;49.166;7.312;2023-02-24T12:04:55;13.40;95.40
2873;DHT22;1444;49.166;7.312;2023-02-24T12:07:30;13.50;95.80
2873;DHT22;1444;49.166;7.312;2023-02-24T12:10:00;13.50;96.00
2873;DHT22;1444;49.166;7.312;2023-02-24T12:12:34;13.50;95.40
2873;DHT22;1444;49.166;7.312;2023-02-24T12:15:04;13.60;95.80
2873;DHT22;1444;49.166;7.312;2023-02-24T12:17:40;13.50;95.30
2873;DHT22;1444;49.166;7.312;2023-02-24T12:20:19;13.60;95.60
2873;DHT22;1444;49.166;7.312;2023-02-24T12:22:52;13.60;95.50
2873;DHT22;1444;49.166;7.312;2023-02-24T12:25:25;13.50;94.70
2873;DHT22;1444;49.166;7.312;2023-02-24T12:28:04;13.40;95.20
2873;DHT22;1444;49.166;7.312;2023-02-24T12:30:49;13.30;95.00
2873;DHT22;1444;49.166;7.312;2023-02-24T12:33:30;13.30;95.00
2873;DHT22;1444;49.166;7.312;2023-02-24T12:36:09;13.30;94.60
2873;DHT22;1444;49.166;7.312;2023-02-24T12:38:48;13.30;95.30
2873;DHT22;1444;49.166;7.312;2023-02-24T12:41:29;13.50;95.80
2873;DHT22;1444;49.166;7.312;2023-02-24T12:44:04;13.50;95.30
2873;DHT22;1444;49.166;7.312;2023-02-24T12:46:35;13.50;94.40
2873;DHT22;1444;49.166;7.312;2023-02-24T12:49:18;13.40;95.00
2873;DHT22;1444;49.166;7.312;2023-02-24T12:51:59;13.40;94.60
2873;DHT22;1444;49.166;7.312;2023-02-24T12:54:34;13.20;94.40
2873;DHT22;1444;49.166;7.312;2023-02-24T12:57:08;13.10;94.20
2873;DHT22;1444;49.166;7.312;2023-02-24T12:59:38;13.10;94.80
2873;DHT22;1444;49.166;7.312;2023-02-24T13:02:10;13.00;95.30
2873;DHT22;1444;49.166;7.312;2023-02-24T13:04:42;13.00;95.20
2873;DHT22;1444;49.166;7.312;2023-02-24T13:07:39;13.10;95.20
2873;DHT22;1444;49.166;7.312;2023-02-24T13:10:20;13.10;94.40
2873;DHT22;1444;49.166;7.312;2023-02-24T13:12:52;13.10;94.70
2873;DHT22;1444;49.166;7.312;2023-02-24T13:15:23;13.00;94.10
2873;DHT22;1444;49.166;7.312;2023-02-24T13:17:52;13.00;94.70
2873;DHT22;1444;49.166;7.312;2023-02-24T13:20:28;13.00;94.90
2873;DHT22;1444;49.166;7.312;2023-02-24T13:22:57;13.00;94.90
2873;DHT22;1444;49.166;7.312;2023-02-24T13:25:29;13.10;94.90
2873;DHT22;1444;49.166;7.312;2023-02-24T13:27:58;13.30;94.70
2873;DHT22;1444;49.166;7.312;2023-02-24T13:30:35;13.40;94.70
2873;DHT22;1444;49.166;7.312;2023-02-24T13:33:06;13.50;94.00
2873;DHT22;1444;49.166;7.312;2023-02-24T13:35:35;13.50;94.00
2873;DHT22;1444;49.166;7.312;2023-02-24T13:38:24;13.40;93.60
2873;DHT22;1444;49.166;7.312;2023-02-24T13:40:52;13.40;94.50
2873;DHT22;1444;49.166;7.312;2023-02-24T13:43:23;13.50;94.20
2873;DHT22;1444;49.166;7.312;2023-02-24T13:45:55;13.40;94.20
2873;DHT22;1444;49.166;7.312;2023-02-24T13:48:47;13.60;94.60
2873;DHT22;1444;49.166;7.312;2023-02-24T13:54:52;13.80;93.70
2873;DHT22;1444;49.166;7.312;2023-02-24T13:57:43;13.50;94.60
2873;DHT22;1444;49.166;7.312;2023-02-24T14:00:20;13.40;94.50
2873;DHT22;1444;49.166;7.312;2023-02-24T14:05:21;13.30;94.20
2873;DHT22;1444;49.166;7.312;2023-02-24T14:07:50;13.50;95.40
2873;DHT22;1444;49.166;7.312;2023-02-24T14:10:19;13.70;93.90
2873;DHT22;1444;49.166;7.312;2023-02-24T14:12:50;13.90;94.20
2873;DHT22;1444;49.166;7.312;2023-02-24T14:15:24;14.10;94.30
2873;DHT22;1444;49.166;7.312;2023-02-24T14:17:56;14.30;94.00
2873;DHT22;1444;49.166;7.312;2023-02-24T14:20:25;14.30;95.60
2873;DHT22;1444;49.166;7.312;2023-02-24T14:22:54;14.30;95.00
2873;DHT22;1444;49.166;7.312;2023-02-24T14:25:24;14.20;95.30
2873;DHT22;1444;49.166;7.312;2023-02-24T14:27:54;14.10;95.10
2873;DHT22;1444;49.166;7.312;2023-02-24T14:30:24;13.70;94.90
2873;DHT22;1444;49.166;7.312;2023-02-24T14:32:51;13.40;95.00
2873;DHT22;1444;49.166;7.312;2023-02-24T14:35:22;13.30;95.70
2873;DHT22;1444;49.166;7.312;2023-02-24T14:37:51;13.20;95.70
2873;DHT22;1444;49.166;7.312;2023-02-24T14:40:18;13.10;95.90
2873;DHT22;1444;49.166;7.312;2023-02-24T14:42:48;13.00;96.50
2873;DHT22;1444;49.166;7.312;2023-02-24T14:45:18;12.80;96.70
2873;DHT22;1444;49.166;7.312;2023-02-24T14:47:45;12.80;96.80
2873;DHT22;1444;49.166;7.312;2023-02-24T14:50:15;12.50;97.10
2873;DHT22;1444;49.166;7.312;2023-02-24T14:52:46;12.50;97.40
2873;DHT22;1444;49.166;7.312;2023-02-24T14:55:17;12.50;97.50
2873;DHT22;1444;49.166;7.312;2023-02-24T14:57:49;12.40;97.40
2873;DHT22;1444;49.166;7.312;2023-02-24T15:00:20;12.20;97.80
2873;DHT22;1444;49.166;7.312;2023-02-24T15:02:53;12.20;98.20
2873;DHT22;1444;49.166;7.312;2023-02-24T15:05:21;12.10;98.10
2873;DHT22;1444;49.166;7.312;2023-02-24T15:07:48;12.00;97.80
2873;DHT22;1444;49.166;7.312;2023-02-24T15:10:21;11.90;98.20
2873;DHT22;1444;49.166;7.312;2023-02-24T15:12:51;11.80;98.10
2873;DHT22;1444;49.166;7.312;2023-02-24T15:15:24;11.60;98.20
2873;DHT22;1444;49.166;7.312;2023-02-24T15:17:54;11.50;98.20
2873;DHT22;1444;49.166;7.312;2023-02-24T15:20:26;11.50;98.40
2873;DHT22;1444;49.166;7.312;2023-02-24T15:22:53;11.40;98.20
2873;DHT22;1444;49.166;7.312;2023-02-24T15:25:22;11.40;98.50
2873;DHT22;1444;49.166;7.312;2023-02-24T15:27:55;11.30;97.90
2873;DHT22;1444;49.166;7.312;2023-02-24T15:30:30;11.40;98.30
2873;DHT22;1444;49.166;7.312;2023-02-24T15:35:34;11.40;97.80
2873;DHT22;1444;49.166;7.312;2023-02-24T15:38:04;11.40;97.80
2873;DHT22;1444;49.166;7.312;2023-02-24T15:40:30;11.40;97.80
2873;DHT22;1444;49.166;7.312;2023-02-24T15:45:32;11.30;97.70
2873;DHT22;1444;49.166;7.312;2023-02-24T15:48:01;11.20;97.80
2873;DHT22;1444;49.166;7.312;2023-02-24T15:50:29;11.20;97.90
2873;DHT22;1444;49.166;7.312;2023-02-24T15:52:59;11.30;97.80
2873;DHT22;1444;49.166;7.312;2023-02-24T15:55:27;11.40;98.00
2873;DHT22;1444;49.166;7.312;2023-02-24T15:57:59;11.50;98.00
2873;DHT22;1444;49.166;7.312;2023-02-24T16:02:54;11.60;98.10
2873;DHT22;1444;49.166;7.312;2023-02-24T16:05:21;11.60;97.90
2873;DHT22;1444;49.166;7.312;2023-02-24T16:07:48;11.60;97.60
2873;DHT22;1444;49.166;7.312;2023-02-24T16:10:18;11.60;97.70
2873;DHT22;1444;49.166;7.312;2023-02-24T16:12:48;11.50;97.60
2873;DHT22;1444;49.166;7.312;2023-02-24T16:15:21;11.40;97.70
2873;DHT22;1444;49.166;7.312;2023-02-24T16:17:49;11.40;97.70
2873;DHT22;1444;49.166;7.312;2023-02-24T16:20:19;11.40;97.70
2873;DHT22;1444;49.166;7.312;2023-02-24T16:22:52;11.30;97.60
2873;DHT22;1444;49.166;7.312;2023-02-24T16:25:19;11.30;97.50
2873;DHT22;1444;49.166;7.312;2023-02-24T16:27:46;11.30;97.70
2873;DHT22;1444;49.166;7.312;2023-02-24T16:30:16;11.30;97.50
2873;DHT22;1444;49.166;7.312;2023-02-24T16:32:43;11.30;97.60
2873;DHT22;1444;49.166;7.312;2023-02-24T16:35:11;11.30;97.60
2873;DHT22;1444;49.166;7.312;2023-02-24T16:37:39;11.20;97.60
2873;DHT22;1444;49.166;7.312;2023-02-24T16:40:21;11.20;97.70
2873;DHT22;1444;49.166;7.312;2023-02-24T16:42:49;11.10;97.80
2873;DHT22;1444;49.166;7.312;2023-02-24T16:45:17;11.10;97.90
2873;DHT22;1444;49.166;7.312;2023-02-24T16:47:44;11.00;98.00
2873;DHT22;1444;49.166;7.312;2023-02-24T16:50:18;11.10;97.90
2873;DHT22;1444;49.166;7.312;2023-02-24T16:52:47;11.00;98.00
2873;DHT22;1444;49.166;7.312;2023-02-24T16:55:14;10.90;98.10